createdAt,value
2022-10-20T00:01:04.730Z,99.90
2022-10-20T00:03:31.444Z,99.90
2022-10-20T00:06:19.533Z,99.90
2022-10-20T00:08:46.615Z,99.90
2022-10-20T00:11:22.942Z,99.90
2022-10-20T00:13:59.082Z,99.90
2022-10-20T00:16:30.606Z,99.90
2022-10-20T00:18:58.534Z,99.90
2022-10-20T00:21:28.860Z,99.90
2022-10-20T00:23:58.807Z,99.90
2022-10-20T00:26:27.450Z,10.30
2022-10-20T00:28:54.917Z,1.00
2022-10-20T00:31:25.598Z,1.00
2022-10-20T00:33:52.912Z,1.00
2022-10-20T00:36:23.605Z,99.90
2022-10-20T00:38:51.080Z,99.90
2022-10-20T00:41:20.662Z,1.00
2022-10-20T00:43:53.126Z,99.90
2022-10-20T00:46:36.262Z,1.00
2022-10-20T00:49:23.536Z,99.90
2022-10-20T00:51:52.619Z,99.90
2022-10-20T00:54:23.126Z,1.00
2022-10-20T00:56:51.040Z,1.00
2022-10-20T00:59:21.542Z,1.00
2022-10-20T01:01:48.991Z,1.00
2022-10-20T01:04:17.259Z,99.90
2022-10-20T01:06:43.991Z,1.00
2022-10-20T01:09:13.115Z,1.00
2022-10-20T01:11:58.698Z,99.90
2022-10-20T01:14:43.568Z,97.40
2022-10-20T01:17:40.756Z,99.90
2022-10-20T01:20:42.135Z,99.90
2022-10-20T01:23:11.676Z,99.90
2022-10-20T01:25:56.760Z,1.00
2022-10-20T01:28:43.005Z,1.00
2022-10-20T01:31:25.645Z,1.00
2022-10-20T01:34:08.200Z,1.00
2022-10-20T01:36:46.602Z,1.00
2022-10-20T01:39:39.274Z,99.90
2022-10-20T01:42:13.797Z,1.00
2022-10-20T01:44:42.162Z,99.90
2022-10-20T01:47:11.592Z,99.90
2022-10-20T01:49:45.960Z,99.90
2022-10-20T01:52:13.499Z,99.90
2022-10-20T01:54:40.620Z,1.00
2022-10-20T01:57:34.568Z,29.70
2022-10-20T02:00:15.297Z,99.90
2022-10-20T02:03:03.213Z,99.90
2022-10-20T02:06:08.625Z,87.80
2022-10-20T02:08:57.978Z,1.00
2022-10-20T02:11:50.581Z,99.90
2022-10-20T02:14:19.826Z,99.90
2022-10-20T02:16:51.075Z,99.90
2022-10-20T02:19:21.017Z,99.90
2022-10-20T02:21:54.139Z,36.10
2022-10-20T02:24:25.937Z,1.00
2022-10-20T02:26:59.593Z,1.00
2022-10-20T02:29:32.622Z,99.90
2022-10-20T02:31:59.503Z,99.90
2022-10-20T02:34:27.227Z,99.90
2022-10-20T02:36:58.731Z,99.90
2022-10-20T02:39:26.196Z,99.90
2022-10-20T02:41:55.897Z,99.90
2022-10-20T02:44:22.949Z,1.00
2022-10-20T02:46:49.750Z,99.90
2022-10-20T02:49:16.721Z,99.90
2022-10-20T02:51:43.341Z,99.90
2022-10-20T02:54:09.965Z,99.90
2022-10-20T02:56:36.597Z,99.90
2022-10-20T02:59:03.221Z,99.90
2022-10-20T03:01:30.044Z,99.90
2022-10-20T03:03:59.621Z,99.90
2022-10-20T03:06:26.842Z,1.00
2022-10-20T03:08:53.556Z,1.00
2022-10-20T03:11:20.240Z,1.00
2022-10-20T03:13:46.900Z,1.00
2022-10-20T03:16:13.580Z,99.90
2022-10-20T03:18:40.216Z,99.90
2022-10-20T03:21:06.982Z,99.90
2022-10-20T03:23:33.657Z,99.90
2022-10-20T03:26:05.421Z,99.90
2022-10-20T03:28:32.577Z,99.90
2022-10-20T03:30:59.759Z,99.90
2022-10-20T03:33:26.574Z,99.90
2022-10-20T03:35:53.305Z,99.90
2022-10-20T03:38:20.214Z,99.90
2022-10-20T03:40:46.920Z,99.90
2022-10-20T03:43:15.292Z,99.90
2022-10-20T03:45:44.856Z,99.90
2022-10-20T03:48:12.568Z,99.90
2022-10-20T03:50:40.908Z,99.90
2022-10-20T03:53:12.343Z,99.90
2022-10-20T03:55:39.040Z,99.90
2022-10-20T03:58:05.736Z,99.90
2022-10-20T04:00:32.555Z,99.90
2022-10-20T04:02:59.285Z,99.90
2022-10-20T04:05:25.982Z,1.00
2022-10-20T04:07:52.637Z,99.90
2022-10-20T04:10:19.290Z,99.90
2022-10-20T04:12:45.970Z,99.90
2022-10-20T04:15:12.782Z,99.90
2022-10-20T04:20:11.234Z,99.90
2022-10-20T04:22:38.645Z,99.90
2022-10-20T04:25:05.889Z,99.90
2022-10-20T04:27:32.965Z,99.90
2022-10-20T04:29:59.723Z,99.90
2022-10-20T04:32:26.356Z,99.90
2022-10-20T04:34:53.023Z,99.90
2022-10-20T04:37:19.683Z,99.90
2022-10-20T04:39:46.355Z,99.90
2022-10-20T04:42:13.001Z,1.00
2022-10-20T04:44:39.624Z,1.00
2022-10-20T04:47:06.319Z,1.00
2022-10-20T04:49:32.980Z,1.00
2022-10-20T04:52:02.285Z,1.00
2022-10-20T04:54:29.325Z,60.30
2022-10-20T04:56:56.134Z,1.00
2022-10-20T04:59:22.874Z,1.00
2022-10-20T05:01:49.669Z,1.00
2022-10-20T05:04:21.833Z,99.90
2022-10-20T05:06:49.507Z,99.90
2022-10-20T05:09:18.821Z,99.90
2022-10-20T05:11:48.544Z,99.90
2022-10-20T05:14:15.279Z,99.90
2022-10-20T05:16:41.928Z,99.90
2022-10-20T05:19:09.697Z,99.90
2022-10-20T05:21:37.435Z,1.00
2022-10-20T05:24:06.019Z,1.00
2022-10-20T05:26:37.081Z,1.00
2022-10-20T05:29:06.090Z,1.00
2022-10-20T05:31:40.202Z,1.00
2022-10-20T05:34:07.559Z,1.00
2022-10-20T05:36:36.673Z,99.90
2022-10-20T05:39:03.816Z,99.90
2022-10-20T05:41:36.276Z,99.90
2022-10-20T05:44:06.807Z,99.90
2022-10-20T05:46:37.820Z,99.90
2022-10-20T05:49:04.585Z,1.00
2022-10-20T05:51:34.617Z,83.40
2022-10-20T05:54:01.763Z,99.90
2022-10-20T05:56:30.096Z,99.90
2022-10-20T05:58:57.614Z,99.90
2022-10-20T06:01:26.606Z,99.90
2022-10-20T06:03:58.609Z,1.00
2022-10-20T06:06:28.661Z,1.00
2022-10-20T06:08:59.807Z,1.00
2022-10-20T06:11:26.825Z,1.00
2022-10-20T06:13:53.661Z,99.90
2022-10-20T06:16:23.392Z,99.90
2022-10-20T06:18:50.555Z,99.90
2022-10-20T06:21:22.630Z,99.90
2022-10-20T06:23:51.876Z,99.90
2022-10-20T06:26:25.084Z,99.90
2022-10-20T06:28:54.535Z,1.00
2022-10-20T06:31:24.426Z,99.90
2022-10-20T06:33:51.658Z,99.90
2022-10-20T06:36:19.670Z,1.00
2022-10-20T06:38:46.910Z,1.00
2022-10-20T06:41:18.370Z,99.90
2022-10-20T06:43:48.180Z,99.90
2022-10-20T06:46:18.017Z,99.90
2022-10-20T06:48:45.596Z,1.00
2022-10-20T06:51:14.956Z,1.00
2022-10-20T06:53:45.907Z,99.90
2022-10-20T06:56:16.434Z,58.30
2022-10-20T06:58:44.728Z,22.20
2022-10-20T07:01:27.211Z,1.00
2022-10-20T07:04:00.439Z,99.90
2022-10-20T07:06:33.185Z,99.90
2022-10-20T07:09:00.390Z,99.90
2022-10-20T07:11:30.234Z,1.00
2022-10-20T07:13:59.457Z,1.00
2022-10-20T07:16:28.502Z,1.00
2022-10-20T07:18:55.684Z,1.00
2022-10-20T07:21:30.734Z,1.00
2022-10-20T07:24:01.540Z,1.00
2022-10-20T07:26:31.424Z,1.00
2022-10-20T07:28:59.583Z,1.00
2022-10-20T07:31:29.651Z,99.90
2022-10-20T07:34:13.146Z,99.90
2022-10-20T07:36:43.415Z,99.90
2022-10-20T07:39:12.119Z,99.90
2022-10-20T07:41:39.604Z,99.90
2022-10-20T07:44:07.337Z,99.90
2022-10-20T07:46:34.134Z,99.90
2022-10-20T07:49:42.812Z,99.90
2022-10-20T07:51:48.532Z,99.90
2022-10-20T07:54:18.370Z,99.90
2022-10-20T07:56:46.189Z,99.90
2022-10-20T07:59:13.943Z,99.90
2022-10-20T08:01:40.729Z,99.90
2022-10-20T08:04:07.768Z,99.90
2022-10-20T08:06:34.524Z,99.90
2022-10-20T08:09:02.140Z,99.90
2022-10-20T08:11:29.121Z,1.00
2022-10-20T08:13:55.868Z,99.90
2022-10-20T08:16:22.648Z,99.90
2022-10-20T08:21:36.108Z,99.90
2022-10-20T08:24:03.783Z,99.90
2022-10-20T08:26:30.546Z,99.90
2022-10-20T08:28:57.203Z,99.90
2022-10-20T08:31:23.905Z,99.90
2022-10-20T08:33:52.805Z,99.90
2022-10-20T08:36:28.092Z,99.90
2022-10-20T08:38:54.884Z,99.90
2022-10-20T08:41:24.874Z,99.90
2022-10-20T08:43:56.441Z,99.90
2022-10-20T08:46:49.455Z,99.90
2022-10-20T08:49:24.183Z,99.90
2022-10-20T08:51:51.211Z,99.90
2022-10-20T08:54:18.634Z,99.90
2022-10-20T08:56:47.967Z,99.90
2022-10-20T08:59:39.186Z,99.90
2022-10-20T09:02:16.560Z,99.90
2022-10-20T09:04:51.335Z,99.90
2022-10-20T09:07:35.306Z,99.90
2022-10-20T09:10:30.157Z,99.90
2022-10-20T09:12:57.547Z,99.90
2022-10-20T09:15:28.925Z,99.90
2022-10-20T09:18:09.116Z,99.90
2022-10-20T09:21:16.411Z,99.90
2022-10-20T09:23:45.545Z,99.90
2022-10-20T09:26:30.579Z,99.90
2022-10-20T09:29:13.755Z,99.90
2022-10-20T09:31:54.827Z,99.90
2022-10-20T09:34:29.317Z,99.90
2022-10-20T09:37:03.302Z,99.90
2022-10-20T09:39:38.251Z,99.90
2022-10-20T09:42:27.842Z,99.90
2022-10-20T09:44:56.905Z,99.90
2022-10-20T09:47:24.685Z,99.90
2022-10-20T09:50:00.901Z,99.90
2022-10-20T09:52:34.396Z,99.90
2022-10-20T09:55:27.577Z,99.90
2022-10-20T09:57:55.852Z,99.90
2022-10-20T10:00:38.339Z,99.90
2022-10-20T10:03:22.816Z,99.90
2022-10-20T10:05:58.006Z,99.90
2022-10-20T10:08:43.896Z,99.90
2022-10-20T10:11:22.135Z,99.90
2022-10-20T10:13:51.416Z,99.90
2022-10-20T10:16:20.694Z,99.90
2022-10-20T10:19:04.665Z,99.90
2022-10-20T10:21:48.393Z,99.90
2022-10-20T10:24:48.877Z,99.90
2022-10-20T10:27:33.679Z,99.90
2022-10-20T10:30:31.937Z,99.90
2022-10-20T10:32:58.715Z,99.90
2022-10-20T10:35:54.025Z,99.90
2022-10-20T10:38:20.933Z,99.90
2022-10-20T10:41:21.453Z,99.90
2022-10-20T10:44:11.268Z,99.90
2022-10-20T10:49:28.258Z,99.90
2022-10-20T10:52:13.724Z,99.90
2022-10-20T10:54:58.543Z,99.90
2022-10-20T10:57:44.787Z,99.90
2022-10-20T11:00:20.039Z,99.90
2022-10-20T11:03:21.588Z,99.90
2022-10-20T11:06:28.554Z,99.90
2022-10-20T11:09:01.301Z,99.90
2022-10-20T11:11:58.697Z,99.90
2022-10-20T11:14:37.467Z,99.90
2022-10-20T11:17:24.384Z,99.90
2022-10-20T11:20:09.167Z,99.90
2022-10-20T11:23:09.480Z,99.90
2022-10-20T11:25:48.601Z,99.90
2022-10-20T11:28:25.644Z,99.90
2022-10-20T11:30:54.494Z,99.90
2022-10-20T11:33:27.938Z,99.90
2022-10-20T11:36:00.771Z,99.90
2022-10-20T11:38:51.400Z,99.90
2022-10-20T11:41:26.582Z,99.90
2022-10-20T11:44:28.077Z,99.90
2022-10-20T11:47:00.971Z,99.90
2022-10-20T11:49:29.166Z,99.90
2022-10-20T11:52:18.553Z,99.90
2022-10-20T11:55:21.869Z,99.90
2022-10-20T11:58:15.950Z,99.90
2022-10-20T12:01:24.488Z,99.90
2022-10-20T12:04:02.041Z,99.90
2022-10-20T12:06:59.071Z,99.90
2022-10-20T12:09:43.018Z,99.90
2022-10-20T12:12:20.722Z,99.90
2022-10-20T12:15:03.680Z,99.90
2022-10-20T12:17:51.707Z,99.90
2022-10-20T12:20:24.618Z,99.90
2022-10-20T12:22:53.926Z,99.90
2022-10-20T12:25:26.124Z,99.90
2022-10-20T12:28:20.999Z,99.90
2022-10-20T12:31:01.354Z,99.90
2022-10-20T12:33:53.282Z,99.90
2022-10-20T12:36:34.201Z,99.90
2022-10-20T12:39:31.938Z,99.90
2022-10-20T12:42:00.313Z,99.90
2022-10-20T12:44:31.235Z,99.90
2022-10-20T12:47:07.957Z,99.90
2022-10-20T12:49:42.658Z,99.90
2022-10-20T12:52:26.927Z,99.90
2022-10-20T12:55:23.144Z,99.90
2022-10-20T12:58:09.477Z,99.90
2022-10-20T13:00:38.114Z,99.90
2022-10-20T13:03:45.383Z,99.90
2022-10-20T13:06:24.082Z,99.90
2022-10-20T13:09:10.503Z,99.90
2022-10-20T13:11:44.400Z,99.90
2022-10-20T13:14:46.349Z,99.90
2022-10-20T13:17:35.363Z,99.90
2022-10-20T13:20:16.374Z,99.90
2022-10-20T13:22:49.537Z,99.90
2022-10-20T13:25:48.867Z,99.90
2022-10-20T13:28:28.487Z,99.90
2022-10-20T13:31:13.475Z,99.90
2022-10-20T13:34:05.945Z,99.90
2022-10-20T13:36:57.422Z,99.90
2022-10-20T13:39:38.746Z,99.90
2022-10-20T13:42:23.331Z,99.90
2022-10-20T13:45:21.013Z,99.90
2022-10-20T13:48:25.069Z,99.90
2022-10-20T13:50:59.772Z,99.90
2022-10-20T13:53:31.393Z,99.90
2022-10-20T13:56:16.147Z,99.90
2022-10-20T13:59:03.171Z,99.90
2022-10-20T14:01:38.054Z,99.90
2022-10-20T14:04:24.999Z,99.90
2022-10-20T14:06:51.800Z,99.90
2022-10-20T14:09:24.462Z,99.90
2022-10-20T14:12:18.989Z,99.90
2022-10-20T14:14:51.798Z,99.90
2022-10-20T14:17:24.022Z,1.00
2022-10-20T14:20:07.221Z,1.00
2022-10-20T14:22:35.087Z,1.00
2022-10-20T14:25:05.321Z,1.00
2022-10-20T14:27:36.286Z,1.00
2022-10-20T14:30:05.685Z,1.00
2022-10-20T14:32:40.340Z,99.90
2022-10-20T14:35:27.028Z,99.90
2022-10-20T14:38:04.295Z,99.90
2022-10-20T14:40:40.109Z,1.00
2022-10-20T14:43:14.526Z,1.00
2022-10-20T14:45:41.346Z,1.00
2022-10-20T14:48:15.362Z,99.90
2022-10-20T14:50:42.013Z,1.00
2022-10-20T14:53:22.264Z,24.50
2022-10-20T14:55:48.906Z,99.90
2022-10-20T14:58:34.186Z,1.00
2022-10-20T15:01:33.503Z,99.90
2022-10-20T15:04:25.457Z,99.90
2022-10-20T15:07:04.229Z,99.90
2022-10-20T15:09:44.922Z,1.00
2022-10-20T15:12:28.173Z,99.90
2022-10-20T15:15:11.778Z,1.00
2022-10-20T15:17:43.143Z,99.90
2022-10-20T15:20:33.932Z,99.90
2022-10-20T15:23:03.647Z,1.00
2022-10-20T15:25:35.908Z,1.00
2022-10-20T15:28:25.136Z,99.90
2022-10-20T15:30:52.052Z,99.90
2022-10-20T15:33:22.175Z,99.90
2022-10-20T15:35:53.023Z,99.90
2022-10-20T15:38:22.901Z,99.90
2022-10-20T15:40:51.827Z,99.90
2022-10-20T15:43:24.062Z,99.90
2022-10-20T15:45:58.818Z,99.90
2022-10-20T15:48:26.140Z,99.90
2022-10-20T15:50:54.166Z,99.90
2022-10-20T15:53:20.854Z,99.90
2022-10-20T15:55:47.738Z,99.90
2022-10-20T15:58:17.198Z,1.00
2022-10-20T16:00:43.848Z,1.00
2022-10-20T16:03:17.664Z,1.00
2022-10-20T16:05:45.883Z,1.00
2022-10-20T16:08:12.905Z,1.00
2022-10-20T16:10:43.531Z,1.00
2022-10-20T16:13:11.754Z,1.00
2022-10-20T16:15:38.345Z,1.00
2022-10-20T16:18:07.331Z,1.00
2022-10-20T16:20:42.132Z,1.00
2022-10-20T16:23:08.753Z,1.00
2022-10-20T16:25:41.674Z,1.00
2022-10-20T16:28:08.834Z,1.00
2022-10-20T16:30:35.791Z,1.00
2022-10-20T16:33:02.392Z,1.00
2022-10-20T16:35:28.989Z,1.00
2022-10-20T16:37:55.693Z,1.00
2022-10-20T16:40:22.348Z,1.00
2022-10-20T16:42:48.994Z,1.00
2022-10-20T16:45:18.616Z,1.00
2022-10-20T16:47:48.064Z,1.00
2022-10-20T16:50:14.745Z,1.00
2022-10-20T16:52:44.485Z,1.00
2022-10-20T16:55:14.161Z,1.00
2022-10-20T16:57:40.922Z,1.00
2022-10-20T17:00:09.223Z,1.00
2022-10-20T17:02:36.282Z,1.00
2022-10-20T17:05:05.414Z,1.00
2022-10-20T17:07:35.339Z,1.00
2022-10-20T17:10:02.302Z,1.00
2022-10-20T17:12:31.358Z,1.00
2022-10-20T17:14:58.124Z,1.00
2022-10-20T17:17:24.727Z,1.00
2022-10-20T17:19:51.371Z,1.00
2022-10-20T17:22:20.621Z,1.00
2022-10-20T17:24:47.257Z,1.00
2022-10-20T17:27:13.864Z,1.00
2022-10-20T17:29:40.499Z,1.00
2022-10-20T17:32:07.186Z,1.00
2022-10-20T17:34:36.224Z,1.00
2022-10-20T17:37:05.528Z,1.00
2022-10-20T17:39:38.267Z,1.00
2022-10-20T17:42:04.969Z,1.00
2022-10-20T17:44:31.621Z,1.00
2022-10-20T17:46:59.139Z,1.00
2022-10-20T17:49:25.743Z,1.00
2022-10-20T17:51:52.365Z,1.00
2022-10-20T17:54:20.244Z,10.80
2022-10-20T17:56:47.910Z,18.00
2022-10-20T17:59:14.995Z,20.10
2022-10-20T18:01:41.736Z,18.80
2022-10-20T18:04:11.447Z,19.00
2022-10-20T18:06:39.471Z,19.00
2022-10-20T18:09:14.750Z,20.20
2022-10-20T18:11:45.307Z,22.70
2022-10-20T18:14:18.693Z,26.50
2022-10-20T18:16:48.797Z,31.30
2022-10-20T18:19:19.985Z,40.20
2022-10-20T18:21:47.265Z,43.90
2022-10-20T18:24:18.504Z,42.90
2022-10-20T18:26:45.720Z,44.50
2022-10-20T18:29:14.053Z,49.30
2022-10-20T18:31:42.441Z,51.30
2022-10-20T18:34:12.606Z,50.90
2022-10-20T18:36:43.354Z,48.60
2022-10-20T18:39:19.645Z,46.40
2022-10-20T18:41:46.494Z,47.10
2022-10-20T18:44:16.238Z,47.60
2022-10-20T18:46:43.883Z,47.40
2022-10-20T18:49:15.834Z,48.30
2022-10-20T18:51:44.939Z,48.50
2022-10-20T18:54:18.040Z,46.80
2022-10-20T18:56:44.978Z,43.60
2022-10-20T18:59:14.093Z,39.10
2022-10-20T19:01:41.619Z,34.70
2022-10-20T19:04:10.256Z,33.80
2022-10-20T19:06:58.351Z,35.00
2022-10-20T19:09:24.998Z,37.30
2022-10-20T19:11:51.720Z,41.50
2022-10-20T19:14:20.847Z,40.70
2022-10-20T19:16:48.677Z,44.00
2022-10-20T19:19:16.005Z,47.30
2022-10-20T19:21:42.720Z,47.30
2022-10-20T19:24:25.254Z,52.70
2022-10-20T19:27:24.644Z,58.80
2022-10-20T19:29:41.481Z,60.60
2022-10-20T19:32:08.157Z,61.40
2022-10-20T19:34:40.090Z,60.40
2022-10-20T19:37:10.002Z,68.50
2022-10-20T19:39:39.310Z,80.70
2022-10-20T19:42:07.352Z,90.90
2022-10-20T19:44:37.889Z,94.60
2022-10-20T19:47:07.995Z,97.50
2022-10-20T19:49:35.044Z,99.20
2022-10-20T19:52:01.804Z,99.90
2022-10-20T19:54:29.016Z,99.90
2022-10-20T19:56:55.940Z,99.90
2022-10-20T19:59:22.715Z,99.90
2022-10-20T20:01:49.935Z,99.90
2022-10-20T20:04:16.671Z,99.90
2022-10-20T20:06:43.582Z,99.90
2022-10-20T20:09:15.738Z,99.90
2022-10-20T20:11:45.280Z,99.90
2022-10-20T20:14:19.993Z,99.90
2022-10-20T20:16:50.030Z,99.90
2022-10-20T20:19:17.703Z,99.90
2022-10-20T20:21:45.971Z,99.90
2022-10-20T20:24:14.322Z,99.90
2022-10-20T20:26:41.113Z,99.90
2022-10-20T20:29:08.230Z,99.90
2022-10-20T20:31:34.964Z,99.90
2022-10-20T20:34:02.254Z,99.90
2022-10-20T20:36:29.695Z,99.90
2022-10-20T20:39:07.284Z,99.90
2022-10-20T20:41:34.463Z,99.90
2022-10-20T20:44:32.276Z,99.90
2022-10-20T20:46:59.333Z,99.90
2022-10-20T20:49:26.278Z,99.90
2022-10-20T20:51:52.887Z,99.90
2022-10-20T20:54:22.556Z,99.90
2022-10-20T20:56:52.545Z,99.90
2022-10-20T20:59:19.745Z,99.90
2022-10-20T21:01:46.969Z,99.90
2022-10-20T21:04:14.213Z,99.90
2022-10-20T21:07:01.783Z,99.90
2022-10-20T21:09:29.358Z,99.90
2022-10-20T21:11:56.317Z,99.90
2022-10-20T21:14:29.608Z,99.90
2022-10-20T21:16:56.361Z,99.90
2022-10-20T21:19:29.833Z,99.90
2022-10-20T21:22:01.269Z,99.90
2022-10-20T21:24:30.929Z,99.90
2022-10-20T21:26:57.676Z,99.90
2022-10-20T21:29:24.394Z,99.90
2022-10-20T21:31:51.011Z,99.90
2022-10-20T21:34:17.936Z,99.90
2022-10-20T21:36:44.618Z,99.90
2022-10-20T21:39:15.709Z,99.90
2022-10-20T21:41:43.733Z,99.90
2022-10-20T21:44:12.604Z,99.90
2022-10-20T21:46:47.135Z,99.90
2022-10-20T21:49:19.360Z,99.90
2022-10-20T21:51:49.176Z,99.90
2022-10-20T21:56:52.537Z,99.90
2022-10-20T21:59:26.880Z,99.90
2022-10-20T22:01:56.957Z,99.90
2022-10-20T22:04:25.946Z,99.90
2022-10-20T22:06:59.615Z,99.90
2022-10-20T22:09:26.508Z,99.90
2022-10-20T22:11:55.296Z,99.90
2022-10-20T22:14:22.922Z,99.90
2022-10-20T22:16:50.089Z,99.90
2022-10-20T22:19:20.117Z,99.90
2022-10-20T22:21:48.330Z,99.90
2022-10-20T22:24:17.503Z,99.90
2022-10-20T22:26:44.827Z,99.90
2022-10-20T22:29:11.977Z,99.90
2022-10-20T22:31:39.941Z,99.90
2022-10-20T22:34:09.709Z,99.90
2022-10-20T22:36:39.688Z,99.90
2022-10-20T22:39:07.417Z,99.90
2022-10-20T22:41:34.183Z,99.90
2022-10-20T22:44:00.801Z,99.90
2022-10-20T22:46:27.603Z,99.90
2022-10-20T22:48:56.400Z,99.90
2022-10-20T22:51:23.053Z,99.90
2022-10-20T22:53:49.717Z,99.90
2022-10-20T22:56:19.766Z,99.90
2022-10-20T22:58:47.781Z,99.90
2022-10-20T23:01:20.583Z,99.90
2022-10-20T23:03:47.854Z,99.90
2022-10-20T23:06:22.840Z,99.90
2022-10-20T23:08:52.662Z,99.90
2022-10-20T23:11:21.049Z,99.90
2022-10-20T23:13:48.057Z,99.90
2022-10-20T23:16:15.375Z,99.90
2022-10-20T23:18:42.521Z,99.90
2022-10-20T23:21:09.291Z,99.90
2022-10-20T23:23:37.376Z,99.90
2022-10-20T23:26:06.150Z,99.90
2022-10-20T23:28:34.406Z,99.90
2022-10-20T23:31:09.813Z,99.90
2022-10-20T23:33:40.564Z,99.90
2022-10-20T23:36:07.450Z,99.90
2022-10-20T23:38:34.525Z,99.90
2022-10-20T23:41:01.178Z,99.90
2022-10-20T23:43:28.183Z,99.90
2022-10-20T23:45:54.882Z,99.90
2022-10-20T23:48:25.277Z,99.90
2022-10-20T23:50:52.061Z,99.90
2022-10-20T23:53:18.817Z,99.90
2022-10-20T23:55:45.464Z,99.90
2022-10-20T23:58:12.547Z,99.90
